createdAt,value
2018-02-08T00:01:12.006Z,33.97
2018-02-08T00:03:39.702Z,31.45
2018-02-08T00:06:08.073Z,30.85
2018-02-08T00:08:36.541Z,32.25
2018-02-08T00:11:04.250Z,31.62
2018-02-08T00:13:31.962Z,31.33
2018-02-08T00:16:01.063Z,32.10
2018-02-08T00:18:29.494Z,30.65
2018-02-08T00:20:57.066Z,30.95
2018-02-08T00:23:24.658Z,31.20
2018-02-08T00:25:52.243Z,34.72
2018-02-08T00:28:19.806Z,33.05
2018-02-08T00:30:47.438Z,36.40
2018-02-08T00:33:15.027Z,33.97
2018-02-08T00:35:42.610Z,33.90
2018-02-08T00:38:10.225Z,31.95
2018-02-08T00:40:38.585Z,32.78
2018-02-08T00:43:06.147Z,33.45
2018-02-08T00:45:33.701Z,36.00
2018-02-08T00:48:02.062Z,33.67
2018-02-08T00:50:29.622Z,33.15
2018-02-08T00:52:57.213Z,32.95
2018-02-08T00:55:25.609Z,36.38
2018-02-08T00:57:53.253Z,35.13
2018-02-08T01:00:21.578Z,35.53
2018-02-08T01:02:49.133Z,33.88
2018-02-08T01:05:16.738Z,35.28
2018-02-08T01:07:44.294Z,36.03
2018-02-08T01:10:11.886Z,37.17
2018-02-08T01:12:39.479Z,33.45
2018-02-08T01:15:07.033Z,35.17
2018-02-08T01:17:34.863Z,33.80
2018-02-08T01:20:02.463Z,34.65
2018-02-08T01:22:30.091Z,34.53
2018-02-08T01:24:57.880Z,33.95
2018-02-08T01:27:25.467Z,33.92
2018-02-08T01:29:53.048Z,35.58
2018-02-08T01:32:21.386Z,35.42
2018-02-08T01:34:49.058Z,34.05
2018-02-08T01:37:17.394Z,32.28
2018-02-08T01:39:44.973Z,36.25
2018-02-08T01:42:12.691Z,34.13
2018-02-08T01:44:41.018Z,32.40
2018-02-08T01:47:08.650Z,35.83
2018-02-08T01:49:45.165Z,36.13
2018-02-08T01:52:12.758Z,32.95
2018-02-08T01:54:40.313Z,33.70
2018-02-08T01:57:07.873Z,32.55
2018-02-08T01:59:35.498Z,32.88
2018-02-08T02:02:03.062Z,34.75
2018-02-08T02:04:30.647Z,36.85
2018-02-08T02:06:58.970Z,34.38
2018-02-08T02:09:26.576Z,34.17
2018-02-08T02:11:54.946Z,34.35
2018-02-08T02:14:23.406Z,35.05
2018-02-08T02:16:50.993Z,34.53
2018-02-08T02:19:19.326Z,34.65
2018-02-08T02:21:46.913Z,36.67
2018-02-08T02:24:15.257Z,35.05
2018-02-08T02:26:42.874Z,34.60
2018-02-08T02:29:10.474Z,36.42
2018-02-08T02:31:38.061Z,35.83
2018-02-08T02:34:06.387Z,34.33
2018-02-08T02:36:33.961Z,38.10
2018-02-08T02:39:01.806Z,37.83
2018-02-08T02:41:29.386Z,36.08
2018-02-08T02:43:57.199Z,34.22
2018-02-08T02:46:24.765Z,34.63
2018-02-08T02:48:53.110Z,35.20
2018-02-08T02:51:20.672Z,38.05
2018-02-08T02:53:48.338Z,37.03
2018-02-08T02:56:15.893Z,38.47
2018-02-08T02:58:43.632Z,35.10
2018-02-08T03:01:11.203Z,33.08
2018-02-08T03:03:39.006Z,36.72
2018-02-08T03:06:06.562Z,33.35
2018-02-08T03:08:35.017Z,37.63
2018-02-08T03:11:02.731Z,34.85
2018-02-08T03:13:30.406Z,34.45
2018-02-08T03:15:58.008Z,35.17
2018-02-08T03:18:26.489Z,36.85
2018-02-08T03:20:54.846Z,36.67
2018-02-08T03:23:22.505Z,35.10
2018-02-08T03:25:50.065Z,38.72
2018-02-08T03:28:17.658Z,37.10
2018-02-08T03:30:48.458Z,37.20
2018-02-08T03:33:16.047Z,36.20
2018-02-08T03:35:44.366Z,38.53
2018-02-08T03:38:11.955Z,39.90
2018-02-08T03:40:39.534Z,36.42
2018-02-08T03:43:08.094Z,38.08
2018-02-08T03:45:35.690Z,36.58
2018-02-08T03:48:04.035Z,37.05
2018-02-08T03:50:31.626Z,37.88
2018-02-08T03:53:00.047Z,35.85
2018-02-08T03:55:27.654Z,35.22
2018-02-08T03:57:56.014Z,40.05
2018-02-08T04:00:23.606Z,36.83
2018-02-08T04:02:51.167Z,38.00
2018-02-08T04:05:18.758Z,40.92
2018-02-08T04:07:46.314Z,36.88
2018-02-08T04:10:13.925Z,41.05
2018-02-08T04:12:42.246Z,40.47
2018-02-08T04:15:09.819Z,40.83
2018-02-08T04:17:37.412Z,41.10
2018-02-08T04:20:05.755Z,38.50
2018-02-08T04:22:33.361Z,39.45
2018-02-08T04:25:01.678Z,40.00
2018-02-08T04:27:29.266Z,41.17
2018-02-08T04:29:57.074Z,39.10
2018-02-08T04:32:24.640Z,40.90
2018-02-08T04:34:52.235Z,45.47
2018-02-08T04:37:19.794Z,40.40
2018-02-08T04:39:59.142Z,41.33
2018-02-08T04:42:35.483Z,41.03
2018-02-08T04:45:15.038Z,44.42
2018-02-08T04:47:58.185Z,39.55
2018-02-08T04:50:26.554Z,36.70
2018-02-08T04:52:54.107Z,40.47
2018-02-08T04:55:21.694Z,41.90
2018-02-08T04:57:50.019Z,40.75
2018-02-08T05:00:17.607Z,42.22
2018-02-08T05:02:45.257Z,41.37
2018-02-08T05:05:12.830Z,45.95
2018-02-08T05:07:41.187Z,44.55
2018-02-08T05:10:08.746Z,45.03
2018-02-08T05:12:36.438Z,43.63
2018-02-08T05:15:04.861Z,42.05
2018-02-08T05:17:32.602Z,45.65
2018-02-08T05:20:00.181Z,45.03
2018-02-08T05:22:27.778Z,46.72
2018-02-08T05:24:56.199Z,44.33
2018-02-08T05:27:23.822Z,43.53
2018-02-08T05:29:52.201Z,46.85
2018-02-08T05:32:20.539Z,45.97
2018-02-08T05:34:48.102Z,46.30
2018-02-08T05:37:15.730Z,46.67
2018-02-08T05:39:43.298Z,47.17
2018-02-08T05:42:10.886Z,44.53
2018-02-08T05:44:38.482Z,48.42
2018-02-08T05:47:06.099Z,48.42
2018-02-08T05:49:34.614Z,46.63
2018-02-08T05:52:03.089Z,46.58
2018-02-08T05:54:31.418Z,47.88
2018-02-08T05:56:59.010Z,48.58
2018-02-08T05:59:26.738Z,44.70
2018-02-08T06:01:54.306Z,45.20
2018-02-08T06:04:21.899Z,45.83
2018-02-08T06:06:49.641Z,45.28
2018-02-08T06:09:17.242Z,41.42
2018-02-08T06:11:45.702Z,43.75
2018-02-08T06:14:13.290Z,44.08
2018-02-08T06:16:40.858Z,47.67
2018-02-08T06:19:08.450Z,46.22
2018-02-08T06:21:36.027Z,47.25
2018-02-08T06:24:03.638Z,46.92
2018-02-08T06:26:31.325Z,50.03
2018-02-08T06:28:59.062Z,47.20
2018-02-08T06:31:26.624Z,46.22
2018-02-08T06:33:54.266Z,45.00
2018-02-08T06:36:21.931Z,45.78
2018-02-08T06:38:49.518Z,46.00
2018-02-08T06:41:17.130Z,45.83
2018-02-08T06:43:45.473Z,48.28
2018-02-08T06:46:13.098Z,43.97
2018-02-08T06:48:40.838Z,42.58
2018-02-08T06:51:08.438Z,45.22
2018-02-08T06:53:36.039Z,43.47
2018-02-08T06:56:03.614Z,45.55
2018-02-08T06:58:32.006Z,45.67
2018-02-08T07:00:59.610Z,43.17
2018-02-08T07:03:27.174Z,44.03
2018-02-08T07:05:54.774Z,46.65
2018-02-08T07:08:22.434Z,43.35
2018-02-08T07:10:50.026Z,42.25
2018-02-08T07:13:17.582Z,43.28
2018-02-08T07:15:45.310Z,42.92
2018-02-08T07:18:12.914Z,41.03
2018-02-08T07:20:40.548Z,44.30
2018-02-08T07:23:08.167Z,41.80
2018-02-08T07:25:35.761Z,44.28
2018-02-08T07:28:03.323Z,45.90
2018-02-08T07:30:30.891Z,42.35
2018-02-08T07:32:58.490Z,41.95
2018-02-08T07:35:26.056Z,44.25
2018-02-08T07:37:53.646Z,43.60
2018-02-08T07:40:21.202Z,43.95
2018-02-08T07:42:48.839Z,45.03
2018-02-08T07:45:17.206Z,45.47
2018-02-08T07:47:44.819Z,43.92
2018-02-08T07:50:12.404Z,46.47
2018-02-08T07:52:40.059Z,46.42
2018-02-08T07:55:07.659Z,44.47
2018-02-08T07:57:36.135Z,44.53
2018-02-08T08:00:04.597Z,43.17
2018-02-08T08:02:32.210Z,45.38
2018-02-08T08:04:59.814Z,46.00
2018-02-08T08:07:27.432Z,46.67
2018-02-08T08:09:54.986Z,45.63
2018-02-08T08:12:22.594Z,46.05
2018-02-08T08:14:50.170Z,44.83
2018-02-08T08:17:18.608Z,46.63
2018-02-08T08:19:46.258Z,46.20
2018-02-08T08:22:13.862Z,44.20
2018-02-08T08:24:41.414Z,46.35
2018-02-08T08:27:08.986Z,43.53
2018-02-08T08:29:36.577Z,44.95
2018-02-08T08:32:04.113Z,45.42
2018-02-08T08:34:32.588Z,44.20
2018-02-08T08:37:00.913Z,46.00
2018-02-08T08:39:28.633Z,45.58
2018-02-08T08:41:56.971Z,42.92
2018-02-08T08:44:24.610Z,48.00
2018-02-08T08:46:52.198Z,44.85
2018-02-08T08:49:19.770Z,45.00
2018-02-08T08:51:47.368Z,45.08
2018-02-08T08:54:14.923Z,47.00
2018-02-08T08:56:42.524Z,47.03
2018-02-08T08:59:10.084Z,50.97
2018-02-08T09:01:37.674Z,50.60
2018-02-08T09:04:05.997Z,49.90
2018-02-08T09:06:33.594Z,47.38
2018-02-08T09:09:01.186Z,45.50
2018-02-08T09:11:28.750Z,43.83
2018-02-08T09:13:56.339Z,47.80
2018-02-08T09:16:23.893Z,48.63
2018-02-08T09:18:51.494Z,46.55
2018-02-08T09:21:19.830Z,46.90
2018-02-08T09:23:47.464Z,44.80
2018-02-08T09:26:15.026Z,49.38
2018-02-08T09:28:42.726Z,46.60
2018-02-08T09:31:10.283Z,46.03
2018-02-08T09:33:37.841Z,48.75
2018-02-08T09:36:05.454Z,45.90
2018-02-08T09:38:33.022Z,46.13
2018-02-08T09:41:00.613Z,48.60
2018-02-08T09:43:28.194Z,47.80
2018-02-08T09:45:55.798Z,46.83
2018-02-08T09:48:23.375Z,47.28
2018-02-08T09:50:50.957Z,48.10
2018-02-08T09:53:18.550Z,46.50
2018-02-08T09:55:46.882Z,49.78
2018-02-08T09:58:14.465Z,47.03
2018-02-08T10:00:42.030Z,48.53
2018-02-08T10:03:09.626Z,49.08
2018-02-08T10:05:37.195Z,45.15
2018-02-08T10:08:04.758Z,46.85
2018-02-08T10:10:32.353Z,45.58
2018-02-08T10:12:59.962Z,44.63
2018-02-08T10:15:27.628Z,47.72
2018-02-08T10:17:55.190Z,45.00
2018-02-08T10:20:22.801Z,45.33
2018-02-08T10:22:51.207Z,49.75
2018-02-08T10:25:19.534Z,46.85
2018-02-08T10:27:47.167Z,42.72
2018-02-08T10:30:14.893Z,46.75
2018-02-08T10:32:43.314Z,47.30
2018-02-08T10:35:10.911Z,48.15
2018-02-08T10:37:38.515Z,46.80
2018-02-08T10:40:06.147Z,46.55
2018-02-08T10:42:34.762Z,47.97
2018-02-08T10:45:02.337Z,46.67
2018-02-08T10:47:29.930Z,47.05
2018-02-08T10:49:58.287Z,48.50
2018-02-08T10:52:26.673Z,48.08
2018-02-08T10:54:54.247Z,49.42
2018-02-08T10:57:21.847Z,47.90
2018-02-08T10:59:49.425Z,47.97
2018-02-08T11:02:17.006Z,49.03
2018-02-08T11:04:44.622Z,48.13
2018-02-08T11:07:12.182Z,46.55
2018-02-08T11:09:39.789Z,48.60
2018-02-08T11:12:07.350Z,47.58
2018-02-08T11:14:34.977Z,48.78
2018-02-08T11:17:02.543Z,46.37
2018-02-08T11:19:30.184Z,46.50
2018-02-08T11:21:57.774Z,49.67
2018-02-08T11:24:25.511Z,46.85
2018-02-08T11:26:53.090Z,47.20
2018-02-08T11:29:20.737Z,50.28
2018-02-08T11:31:48.342Z,47.17
2018-02-08T11:34:16.829Z,46.78
2018-02-08T11:36:45.353Z,46.95
2018-02-08T11:39:13.022Z,51.22
2018-02-08T11:41:40.618Z,46.72
2018-02-08T11:44:09.014Z,47.13
2018-02-08T11:46:36.602Z,47.88
2018-02-08T11:49:04.210Z,49.47
2018-02-08T11:51:31.782Z,48.17
2018-02-08T11:54:00.167Z,50.47
2018-02-08T11:56:28.519Z,47.95
2018-02-08T11:58:56.114Z,47.30
2018-02-08T12:01:23.741Z,49.53
2018-02-08T12:03:52.079Z,46.37
2018-02-08T12:06:19.694Z,53.15
2018-02-08T12:08:48.038Z,47.30
2018-02-08T12:11:15.622Z,48.00
2018-02-08T12:13:43.977Z,49.13
2018-02-08T12:16:11.566Z,48.05
2018-02-08T12:18:40.079Z,47.97
2018-02-08T12:21:07.716Z,45.85
2018-02-08T12:23:35.274Z,45.17
2018-02-08T12:26:02.834Z,50.25
2018-02-08T12:28:30.448Z,49.85
2018-02-08T12:30:58.024Z,47.67
2018-02-08T12:33:25.614Z,50.25
2018-02-08T12:35:53.190Z,48.53
2018-02-08T12:38:20.798Z,46.80
2018-02-08T12:40:48.386Z,48.90
2018-02-08T12:43:15.971Z,48.22
2018-02-08T12:45:43.588Z,49.58
2018-02-08T12:48:11.921Z,47.67
2018-02-08T12:50:39.565Z,48.20
2018-02-08T12:53:07.285Z,51.33
2018-02-08T12:55:35.778Z,47.15
2018-02-08T12:58:03.355Z,44.58
2018-02-08T13:00:31.018Z,44.42
2018-02-08T13:02:58.598Z,46.70
2018-02-08T13:05:26.163Z,48.85
2018-02-08T13:07:53.753Z,47.67
2018-02-08T13:10:22.094Z,47.95
2018-02-08T13:12:49.683Z,47.70
2018-02-08T13:15:17.255Z,48.80
2018-02-08T13:17:45.694Z,47.30
2018-02-08T13:20:13.254Z,46.58
2018-02-08T13:22:40.902Z,46.58
2018-02-08T13:25:08.492Z,51.03
2018-02-08T13:27:36.042Z,48.90
2018-02-08T13:30:06.694Z,47.70
2018-02-08T13:32:35.098Z,50.50
2018-02-08T13:35:02.866Z,50.25
2018-02-08T13:37:30.447Z,49.35
2018-02-08T13:39:58.023Z,48.40
2018-02-08T13:42:25.608Z,48.58
2018-02-08T13:44:53.212Z,48.85
2018-02-08T13:47:26.389Z,49.38
2018-02-08T13:53:09.011Z,49.17
2018-02-08T13:55:42.259Z,52.92
2018-02-08T13:58:29.594Z,51.15
2018-02-08T14:00:58.751Z,53.53
2018-02-08T14:03:26.359Z,49.80
2018-02-08T14:05:53.902Z,47.80
2018-02-08T14:08:21.495Z,49.22
2018-02-08T14:10:49.838Z,49.78
2018-02-08T14:13:17.447Z,49.63
2018-02-08T14:15:45.090Z,48.67
2018-02-08T14:18:13.589Z,52.25
2018-02-08T14:20:41.166Z,47.67
2018-02-08T14:23:08.834Z,47.28
2018-02-08T14:25:36.451Z,48.08
2018-02-08T14:28:04.774Z,48.78
2018-02-08T14:30:32.465Z,46.95
2018-02-08T14:33:00.039Z,48.10
2018-02-08T14:35:28.406Z,49.15
2018-02-08T14:37:56.742Z,47.80
2018-02-08T14:40:24.426Z,46.95
2018-02-08T14:42:52.114Z,48.60
2018-02-08T14:45:20.447Z,48.78
2018-02-08T14:47:48.057Z,47.55
2018-02-08T14:50:15.622Z,49.40
2018-02-08T14:52:43.258Z,49.53
2018-02-08T14:55:11.705Z,45.60
2018-02-08T14:57:39.282Z,47.38
2018-02-08T15:00:06.906Z,50.83
2018-02-08T15:02:34.485Z,47.88
2018-02-08T15:05:02.098Z,47.85
2018-02-08T15:07:29.674Z,48.08
2018-02-08T15:09:57.294Z,48.50
2018-02-08T15:12:25.699Z,48.30
2018-02-08T15:14:53.378Z,48.28
2018-02-08T15:17:21.172Z,47.80
2018-02-08T15:19:48.769Z,47.80
2018-02-08T15:22:17.098Z,48.45
2018-02-08T15:24:44.690Z,47.45
2018-02-08T15:27:13.059Z,50.33
2018-02-08T15:29:40.848Z,51.37
2018-02-08T15:32:09.262Z,50.05
2018-02-08T15:34:36.923Z,50.53
2018-02-08T15:37:04.665Z,48.80
2018-02-08T15:39:32.251Z,46.15
2018-02-08T15:41:59.822Z,46.55
2018-02-08T15:44:27.601Z,46.40
2018-02-08T15:46:55.326Z,45.55
2018-02-08T15:49:22.899Z,46.95
2018-02-08T15:51:50.557Z,48.33
2018-02-08T15:54:18.172Z,46.72
2018-02-08T15:56:45.758Z,48.70
2018-02-08T15:59:13.475Z,49.50
2018-02-08T16:01:41.812Z,48.67
2018-02-08T16:04:09.439Z,45.50
2018-02-08T16:06:37.050Z,47.70
2018-02-08T16:09:04.624Z,50.40
2018-02-08T16:11:32.989Z,47.65
2018-02-08T16:14:00.599Z,48.25
2018-02-08T16:16:28.212Z,50.30
2018-02-08T16:18:55.810Z,48.47
2018-02-08T16:21:23.382Z,47.92
2018-02-08T16:23:51.002Z,47.60
2018-02-08T16:26:19.334Z,47.40
2018-02-08T16:28:46.934Z,49.53
2018-02-08T16:31:14.498Z,50.00
2018-02-08T16:33:42.977Z,47.62
2018-02-08T16:36:11.321Z,47.92
2018-02-08T16:38:38.963Z,48.30
2018-02-08T16:41:06.729Z,50.38
2018-02-08T16:43:34.307Z,51.90
2018-02-08T16:46:01.906Z,52.33
2018-02-08T16:48:30.283Z,49.58
2018-02-08T16:50:58.666Z,51.33
2018-02-08T16:53:26.234Z,48.80
2018-02-08T16:55:53.816Z,60.15
2018-02-08T16:58:21.410Z,53.10
2018-02-08T17:00:48.996Z,52.08
2018-02-08T17:03:17.400Z,49.60
2018-02-08T17:05:45.842Z,50.28
2018-02-08T17:08:13.443Z,51.50
2018-02-08T17:10:41.033Z,51.22
2018-02-08T17:13:08.593Z,48.42
2018-02-08T17:15:36.186Z,50.53
2018-02-08T17:18:04.670Z,51.83
2018-02-08T17:20:33.062Z,50.05
2018-02-08T17:23:00.660Z,51.05
2018-02-08T17:25:28.242Z,48.28
2018-02-08T17:27:55.807Z,51.65
2018-02-08T17:30:23.466Z,47.95
2018-02-08T17:32:51.798Z,48.00
2018-02-08T17:35:19.422Z,50.67
2018-02-08T17:37:47.761Z,50.67
2018-02-08T17:40:15.334Z,47.85
2018-02-08T17:42:42.930Z,50.35
2018-02-08T17:45:10.494Z,49.42
2018-02-08T17:47:38.110Z,50.22
2018-02-08T17:50:05.694Z,48.08
2018-02-08T17:52:34.150Z,51.65
2018-02-08T17:55:02.510Z,51.92
2018-02-08T17:57:30.301Z,48.87
2018-02-08T17:59:58.674Z,51.58
2018-02-08T18:02:27.027Z,51.92
2018-02-08T18:04:54.631Z,49.40
2018-02-08T18:07:22.216Z,51.63
2018-02-08T18:09:50.031Z,47.35
2018-02-08T18:12:17.610Z,48.70
2018-02-08T18:14:46.195Z,47.13
2018-02-08T18:17:14.542Z,47.03
2018-02-08T18:19:42.155Z,48.40
2018-02-08T18:22:09.740Z,49.33
2018-02-08T18:24:37.362Z,51.10
2018-02-08T18:27:04.965Z,45.78
2018-02-08T18:29:32.546Z,46.17
2018-02-08T18:32:00.214Z,47.17
2018-02-08T18:34:28.693Z,47.70
2018-02-08T18:36:57.073Z,47.17
2018-02-08T18:39:25.410Z,48.08
2018-02-08T18:41:53.078Z,47.78
2018-02-08T18:44:20.671Z,49.30
2018-02-08T18:46:49.129Z,49.00
2018-02-08T18:49:16.710Z,49.35
2018-02-08T18:51:45.099Z,48.38
2018-02-08T18:54:12.738Z,45.97
2018-02-08T18:56:41.098Z,47.50
2018-02-08T18:59:08.703Z,47.03
2018-02-08T19:01:36.287Z,44.90
2018-02-08T19:04:03.881Z,48.63
2018-02-08T19:06:31.453Z,47.88
2018-02-08T19:09:00.141Z,46.85
2018-02-08T19:11:28.518Z,48.17
2018-02-08T19:13:56.866Z,44.65
2018-02-08T19:16:24.452Z,49.42
2018-02-08T19:18:52.798Z,47.50
2018-02-08T19:21:20.435Z,46.17
2018-02-08T19:23:48.002Z,45.72
2018-02-08T19:26:15.614Z,47.40
2018-02-08T19:28:43.958Z,46.55
2018-02-08T19:31:11.551Z,45.47
2018-02-08T19:33:39.890Z,49.38
2018-02-08T19:36:07.514Z,48.05
2018-02-08T19:38:35.103Z,45.72
2018-02-08T19:41:02.672Z,46.17
2018-02-08T19:43:30.292Z,46.15
2018-02-08T19:45:57.863Z,42.22
2018-02-08T19:48:25.472Z,45.95
2018-02-08T19:50:54.071Z,44.00
2018-02-08T19:53:21.682Z,45.30
2018-02-08T19:55:49.307Z,48.90
2018-02-08T19:58:16.916Z,44.55
2018-02-08T20:00:44.495Z,45.42
2018-02-08T20:03:12.875Z,45.90
2018-02-08T20:05:41.211Z,45.30
2018-02-08T20:08:08.823Z,45.35
2018-02-08T20:10:36.483Z,45.90
2018-02-08T20:13:04.135Z,46.03
2018-02-08T20:15:32.522Z,42.50
2018-02-08T20:18:00.139Z,42.95
2018-02-08T20:20:27.751Z,46.10
2018-02-08T20:22:55.316Z,44.58
2018-02-08T20:28:19.473Z,43.58
2018-02-08T20:30:52.665Z,45.15
2018-02-08T20:33:20.246Z,44.50
2018-02-08T20:35:47.875Z,43.58
2018-02-08T20:38:15.479Z,45.15
2018-02-08T20:40:43.144Z,45.40
2018-02-08T20:43:16.483Z,48.53
2018-02-08T20:45:45.571Z,43.40
2018-02-08T20:48:13.322Z,45.95
2018-02-08T20:50:40.910Z,46.92
2018-02-08T20:53:09.262Z,44.63
2018-02-08T20:55:36.951Z,43.38
2018-02-08T20:58:04.547Z,43.83
2018-02-08T21:00:32.175Z,45.92
2018-02-08T21:03:00.667Z,46.53
2018-02-08T21:05:29.195Z,46.30
2018-02-08T21:07:56.813Z,43.67
2018-02-08T21:10:24.426Z,43.83
2018-02-08T21:12:52.079Z,44.35
2018-02-08T21:15:19.662Z,43.33
2018-02-08T21:17:48.022Z,44.00
2018-02-08T21:20:15.603Z,42.35
2018-02-08T21:22:43.359Z,40.20
2018-02-08T21:25:10.958Z,39.85
2018-02-08T21:27:38.556Z,41.10
2018-02-08T21:30:06.207Z,38.15
2018-02-08T21:32:33.813Z,42.55
2018-02-08T21:35:02.150Z,41.20
2018-02-08T21:37:29.775Z,41.53
2018-02-08T21:39:57.430Z,42.62
2018-02-08T21:42:25.015Z,42.22
2018-02-08T21:44:52.625Z,43.65
2018-02-08T21:47:20.954Z,39.50
2018-02-08T21:49:48.706Z,42.00
2018-02-08T21:52:16.297Z,40.75
2018-02-08T21:54:43.871Z,43.38
2018-02-08T21:57:11.471Z,39.85
2018-02-08T21:59:39.026Z,35.78
2018-02-08T22:02:06.847Z,42.42
2018-02-08T22:04:34.456Z,42.28
2018-02-08T22:07:02.071Z,40.78
2018-02-08T22:09:30.428Z,40.70
2018-02-08T22:11:58.838Z,42.00
2018-02-08T22:14:27.289Z,42.90
2018-02-08T22:16:54.878Z,40.55
2018-02-08T22:19:22.451Z,41.13
2018-02-08T22:21:50.777Z,40.15
2018-02-08T22:24:18.432Z,39.53
2018-02-08T22:26:46.138Z,40.05
2018-02-08T22:29:14.658Z,40.63
2018-02-08T22:31:42.361Z,41.05
2018-02-08T22:34:09.955Z,39.47
2018-02-08T22:36:37.608Z,41.50
2018-02-08T22:39:06.454Z,38.38
2018-02-08T22:41:34.065Z,41.08
2018-02-08T22:44:01.661Z,37.47
2018-02-08T22:46:29.440Z,37.65
2018-02-08T22:48:57.006Z,35.30
2018-02-08T22:51:24.610Z,40.30
2018-02-08T22:53:52.179Z,39.75
2018-02-08T22:56:19.746Z,35.47
2018-02-08T22:58:47.494Z,37.95
2018-02-08T23:01:15.176Z,36.50
2018-02-08T23:03:42.778Z,36.17
2018-02-08T23:06:10.342Z,37.95
2018-02-08T23:08:38.698Z,40.28
2018-02-08T23:11:06.310Z,34.72
2018-02-08T23:13:34.120Z,38.10
2018-02-08T23:16:01.683Z,39.28
2018-02-08T23:18:29.299Z,33.47
2018-02-08T23:20:56.854Z,36.50
2018-02-08T23:23:24.414Z,30.37
2018-02-08T23:25:52.026Z,38.05
2018-02-08T23:28:19.582Z,38.53
2018-02-08T23:30:48.142Z,41.67
2018-02-08T23:33:15.709Z,38.45
2018-02-08T23:35:43.297Z,39.25
2018-02-08T23:38:11.706Z,37.70
2018-02-08T23:40:39.490Z,39.85
2018-02-08T23:43:07.112Z,34.63
2018-02-08T23:45:35.637Z,39.00
2018-02-08T23:48:03.236Z,43.08
2018-02-08T23:50:31.569Z,44.45
2018-02-08T23:52:59.158Z,40.55
2018-02-08T23:55:26.827Z,41.22
2018-02-08T23:57:54.458Z,40.22
